sensor_id;sensor_type;location;lat;lon;timestamp;P1;durP1;ratioP1;P2;durP2;ratioP2
2992;SDS011;1506;48.932;9.478;2022-09-12T00:00:50;5.67;;;5.27;;
2992;SDS011;1506;48.932;9.478;2022-09-12T00:03:17;6.40;;;5.83;;
2992;SDS011;1506;48.932;9.478;2022-09-12T00:05:44;5.80;;;5.30;;
2992;SDS011;1506;48.932;9.478;2022-09-12T00:08:12;5.87;;;5.37;;
2992;SDS011;1506;48.932;9.478;2022-09-12T00:10:40;6.07;;;5.60;;
2992;SDS011;1506;48.932;9.478;2022-09-12T00:13:09;6.10;;;5.60;;
2992;SDS011;1506;48.932;9.478;2022-09-12T00:15:40;5.80;;;5.30;;
2992;SDS011;1506;48.932;9.478;2022-09-12T00:18:11;7.97;;;7.37;;
2992;SDS011;1506;48.932;9.478;2022-09-12T00:20:42;5.97;;;5.47;;
2992;SDS011;1506;48.932;9.478;2022-09-12T00:23:11;6.40;;;6.00;;
2992;SDS011;1506;48.932;9.478;2022-09-12T00:25:42;6.03;;;5.63;;
2992;SDS011;1506;48.932;9.478;2022-09-12T00:28:11;5.87;;;5.30;;
2992;SDS011;1506;48.932;9.478;2022-09-12T00:30:42;8.00;;;6.40;;
2992;SDS011;1506;48.932;9.478;2022-09-12T00:33:10;6.83;;;6.07;;
2992;SDS011;1506;48.932;9.478;2022-09-12T00:38:15;9.83;;;6.97;;
2992;SDS011;1506;48.932;9.478;2022-09-12T00:40:42;6.10;;;5.70;;
2992;SDS011;1506;48.932;9.478;2022-09-12T00:45:56;5.70;;;5.30;;
2992;SDS011;1506;48.932;9.478;2022-09-12T00:49:29;5.00;;;4.70;;
2992;SDS011;1506;48.932;9.478;2022-09-12T00:51:40;4.80;;;4.60;;
2992;SDS011;1506;48.932;9.478;2022-09-12T00:54:14;5.77;;;5.37;;
2992;SDS011;1506;48.932;9.478;2022-09-12T00:56:46;5.73;;;5.30;;
2992;SDS011;1506;48.932;9.478;2022-09-12T00:59:21;6.77;;;6.13;;
2992;SDS011;1506;48.932;9.478;2022-09-12T01:01:53;7.00;;;6.40;;
2992;SDS011;1506;48.932;9.478;2022-09-12T01:04:22;6.97;;;6.40;;
2992;SDS011;1506;48.932;9.478;2022-09-12T01:06:52;6.60;;;6.10;;
2992;SDS011;1506;48.932;9.478;2022-09-12T01:09:22;5.97;;;5.60;;
2992;SDS011;1506;48.932;9.478;2022-09-12T01:11:51;10.13;;;6.63;;
2992;SDS011;1506;48.932;9.478;2022-09-12T01:14:18;10.37;;;6.53;;
2992;SDS011;1506;48.932;9.478;2022-09-12T01:16:46;6.90;;;6.40;;
2992;SDS011;1506;48.932;9.478;2022-09-12T01:25:25;7.70;;;7.00;;
2992;SDS011;1506;48.932;9.478;2022-09-12T01:30:57;7.97;;;5.60;;
2992;SDS011;1506;48.932;9.478;2022-09-12T01:48:43;6.87;;;6.40;;
2992;SDS011;1506;48.932;9.478;2022-09-12T01:51:31;5.87;;;5.37;;
2992;SDS011;1506;48.932;9.478;2022-09-12T01:54:05;6.20;;;5.83;;
2992;SDS011;1506;48.932;9.478;2022-09-12T01:56:39;5.70;;;5.33;;
2992;SDS011;1506;48.932;9.478;2022-09-12T01:59:10;8.30;;;7.03;;
2992;SDS011;1506;48.932;9.478;2022-09-12T02:01:50;15.30;;;5.53;;
2992;SDS011;1506;48.932;9.478;2022-09-12T02:04:37;10.07;;;6.20;;
2992;SDS011;1506;48.932;9.478;2022-09-12T02:07:13;5.23;;;4.93;;
2992;SDS011;1506;48.932;9.478;2022-09-12T02:10:04;8.50;;;6.67;;
2992;SDS011;1506;48.932;9.478;2022-09-12T02:12:47;6.97;;;6.47;;
2992;SDS011;1506;48.932;9.478;2022-09-12T02:15:22;5.90;;;5.37;;
2992;SDS011;1506;48.932;9.478;2022-09-12T02:18:04;11.33;;;6.20;;
2992;SDS011;1506;48.932;9.478;2022-09-12T02:20:36;14.63;;;6.00;;
2992;SDS011;1506;48.932;9.478;2022-09-12T02:23:16;5.97;;;5.47;;
2992;SDS011;1506;48.932;9.478;2022-09-12T02:25:50;6.47;;;6.03;;
2992;SDS011;1506;48.932;9.478;2022-09-12T02:28:29;6.50;;;5.90;;
2992;SDS011;1506;48.932;9.478;2022-09-12T02:31:19;6.40;;;5.90;;
2992;SDS011;1506;48.932;9.478;2022-09-12T02:39:43;6.17;;;5.73;;
2992;SDS011;1506;48.932;9.478;2022-09-12T02:42:11;6.27;;;5.67;;
2992;SDS011;1506;48.932;9.478;2022-09-12T02:44:38;6.70;;;6.00;;
2992;SDS011;1506;48.932;9.478;2022-09-12T02:47:19;6.37;;;5.77;;
2992;SDS011;1506;48.932;9.478;2022-09-12T02:49:56;6.97;;;6.40;;
2992;SDS011;1506;48.932;9.478;2022-09-12T02:52:24;6.40;;;5.83;;
2992;SDS011;1506;48.932;9.478;2022-09-12T02:54:54;7.37;;;6.37;;
2992;SDS011;1506;48.932;9.478;2022-09-12T02:57:22;7.10;;;6.23;;
2992;SDS011;1506;48.932;9.478;2022-09-12T02:59:51;7.53;;;6.63;;
2992;SDS011;1506;48.932;9.478;2022-09-12T03:05:42;6.77;;;6.17;;
2992;SDS011;1506;48.932;9.478;2022-09-12T03:08:32;7.70;;;5.67;;
2992;SDS011;1506;48.932;9.478;2022-09-12T03:17:10;5.17;;;4.77;;
2992;SDS011;1506;48.932;9.478;2022-09-12T03:28:15;5.60;;;5.30;;
2992;SDS011;1506;48.932;9.478;2022-09-12T03:30:45;4.97;;;4.60;;
2992;SDS011;1506;48.932;9.478;2022-09-12T03:33:17;6.40;;;5.80;;
2992;SDS011;1506;48.932;9.478;2022-09-12T03:35:48;6.27;;;5.80;;
2992;SDS011;1506;48.932;9.478;2022-09-12T03:38:16;6.07;;;5.70;;
2992;SDS011;1506;48.932;9.478;2022-09-12T03:40:43;5.40;;;5.00;;
2992;SDS011;1506;48.932;9.478;2022-09-12T03:43:14;5.60;;;5.20;;
2992;SDS011;1506;48.932;9.478;2022-09-12T03:45:41;6.07;;;5.53;;
2992;SDS011;1506;48.932;9.478;2022-09-12T03:48:08;6.73;;;6.10;;
2992;SDS011;1506;48.932;9.478;2022-09-12T03:50:35;5.97;;;5.47;;
2992;SDS011;1506;48.932;9.478;2022-09-12T03:53:02;8.07;;;5.67;;
2992;SDS011;1506;48.932;9.478;2022-09-12T03:55:29;5.87;;;5.33;;
2992;SDS011;1506;48.932;9.478;2022-09-12T03:57:56;5.97;;;5.60;;
2992;SDS011;1506;48.932;9.478;2022-09-12T04:00:23;6.07;;;5.50;;
2992;SDS011;1506;48.932;9.478;2022-09-12T04:02:54;5.47;;;5.10;;
2992;SDS011;1506;48.932;9.478;2022-09-12T04:05:24;6.10;;;5.57;;
2992;SDS011;1506;48.932;9.478;2022-09-12T04:07:51;5.80;;;5.40;;
2992;SDS011;1506;48.932;9.478;2022-09-12T04:10:18;11.30;;;6.50;;
2992;SDS011;1506;48.932;9.478;2022-09-12T04:12:45;7.50;;;6.73;;
2992;SDS011;1506;48.932;9.478;2022-09-12T04:15:12;8.20;;;6.80;;
2992;SDS011;1506;48.932;9.478;2022-09-12T04:17:39;12.03;;;8.00;;
2992;SDS011;1506;48.932;9.478;2022-09-12T04:20:06;10.83;;;6.30;;
2992;SDS011;1506;48.932;9.478;2022-09-12T04:22:34;9.67;;;7.20;;
2992;SDS011;1506;48.932;9.478;2022-09-12T04:25:01;14.20;;;9.07;;
2992;SDS011;1506;48.932;9.478;2022-09-12T04:27:28;14.50;;;10.33;;
2992;SDS011;1506;48.932;9.478;2022-09-12T04:29:56;12.30;;;7.73;;
2992;SDS011;1506;48.932;9.478;2022-09-12T04:32:23;15.70;;;9.63;;
2992;SDS011;1506;48.932;9.478;2022-09-12T04:34:50;9.60;;;7.73;;
2992;SDS011;1506;48.932;9.478;2022-09-12T04:37:17;7.00;;;6.17;;
2992;SDS011;1506;48.932;9.478;2022-09-12T04:39:44;6.70;;;6.10;;
2992;SDS011;1506;48.932;9.478;2022-09-12T04:42:14;8.20;;;6.70;;
2992;SDS011;1506;48.932;9.478;2022-09-12T04:44:41;7.90;;;6.73;;
2992;SDS011;1506;48.932;9.478;2022-09-12T04:47:09;8.63;;;6.57;;
2992;SDS011;1506;48.932;9.478;2022-09-12T04:49:36;5.87;;;5.43;;
2992;SDS011;1506;48.932;9.478;2022-09-12T04:52:02;13.13;;;7.80;;
2992;SDS011;1506;48.932;9.478;2022-09-12T04:54:29;10.80;;;7.03;;
2992;SDS011;1506;48.932;9.478;2022-09-12T04:56:57;8.20;;;6.60;;
2992;SDS011;1506;48.932;9.478;2022-09-12T04:59:24;7.97;;;6.50;;
2992;SDS011;1506;48.932;9.478;2022-09-12T05:01:52;6.20;;;5.73;;
2992;SDS011;1506;48.932;9.478;2022-09-12T05:04:19;8.03;;;5.60;;
2992;SDS011;1506;48.932;9.478;2022-09-12T05:06:46;9.50;;;6.60;;
2992;SDS011;1506;48.932;9.478;2022-09-12T05:09:13;6.40;;;5.80;;
2992;SDS011;1506;48.932;9.478;2022-09-12T05:11:42;6.97;;;6.00;;
2992;SDS011;1506;48.932;9.478;2022-09-12T05:14:30;6.67;;;6.00;;
2992;SDS011;1506;48.932;9.478;2022-09-12T05:16:59;7.03;;;6.20;;
2992;SDS011;1506;48.932;9.478;2022-09-12T05:19:28;9.10;;;7.87;;
2992;SDS011;1506;48.932;9.478;2022-09-12T05:21:56;8.53;;;7.73;;
2992;SDS011;1506;48.932;9.478;2022-09-12T05:24:24;13.23;;;8.30;;
2992;SDS011;1506;48.932;9.478;2022-09-12T05:26:51;24.53;;;10.37;;
2992;SDS011;1506;48.932;9.478;2022-09-12T05:29:18;19.17;;;8.87;;
2992;SDS011;1506;48.932;9.478;2022-09-12T05:31:45;11.10;;;7.30;;
2992;SDS011;1506;48.932;9.478;2022-09-12T05:34:15;8.93;;;6.13;;
2992;SDS011;1506;48.932;9.478;2022-09-12T05:36:42;8.00;;;7.30;;
2992;SDS011;1506;48.932;9.478;2022-09-12T05:39:09;12.00;;;7.17;;
2992;SDS011;1506;48.932;9.478;2022-09-12T05:41:36;14.97;;;9.00;;
2992;SDS011;1506;48.932;9.478;2022-09-12T05:44:04;12.40;;;6.77;;
2992;SDS011;1506;48.932;9.478;2022-09-12T05:46:37;15.33;;;8.10;;
2992;SDS011;1506;48.932;9.478;2022-09-12T05:49:06;8.10;;;7.30;;
2992;SDS011;1506;48.932;9.478;2022-09-12T05:51:36;7.70;;;7.00;;
2992;SDS011;1506;48.932;9.478;2022-09-12T05:54:05;7.87;;;7.07;;
2992;SDS011;1506;48.932;9.478;2022-09-12T05:56:35;7.20;;;6.57;;
2992;SDS011;1506;48.932;9.478;2022-09-12T05:59:25;7.00;;;6.30;;
2992;SDS011;1506;48.932;9.478;2022-09-12T06:01:53;6.53;;;5.57;;
2992;SDS011;1506;48.932;9.478;2022-09-12T06:04:20;19.20;;;8.20;;
2992;SDS011;1506;48.932;9.478;2022-09-12T06:06:48;7.17;;;6.57;;
2992;SDS011;1506;48.932;9.478;2022-09-12T06:09:17;7.50;;;6.80;;
2992;SDS011;1506;48.932;9.478;2022-09-12T06:11:44;5.13;;;4.83;;
2992;SDS011;1506;48.932;9.478;2022-09-12T06:14:13;4.97;;;4.53;;
2992;SDS011;1506;48.932;9.478;2022-09-12T06:16:42;6.40;;;5.83;;
2992;SDS011;1506;48.932;9.478;2022-09-12T06:19:19;6.87;;;5.37;;
2992;SDS011;1506;48.932;9.478;2022-09-12T06:21:48;5.40;;;5.10;;
2992;SDS011;1506;48.932;9.478;2022-09-12T06:24:17;5.47;;;5.17;;
2992;SDS011;1506;48.932;9.478;2022-09-12T06:26:46;6.50;;;6.07;;
2992;SDS011;1506;48.932;9.478;2022-09-12T06:29:14;6.40;;;5.80;;
2992;SDS011;1506;48.932;9.478;2022-09-12T06:31:41;5.20;;;5.00;;
2992;SDS011;1506;48.932;9.478;2022-09-12T06:34:10;4.50;;;4.20;;
2992;SDS011;1506;48.932;9.478;2022-09-12T06:36:40;4.40;;;4.20;;
2992;SDS011;1506;48.932;9.478;2022-09-12T06:39:10;5.43;;;5.07;;
2992;SDS011;1506;48.932;9.478;2022-09-12T06:41:39;6.33;;;5.80;;
2992;SDS011;1506;48.932;9.478;2022-09-12T06:44:11;9.83;;;4.87;;
2992;SDS011;1506;48.932;9.478;2022-09-12T06:46:47;5.33;;;4.83;;
2992;SDS011;1506;48.932;9.478;2022-09-12T06:49:15;5.33;;;5.13;;
2992;SDS011;1506;48.932;9.478;2022-09-12T06:51:42;4.20;;;4.00;;
2992;SDS011;1506;48.932;9.478;2022-09-12T06:54:13;4.57;;;4.37;;
2992;SDS011;1506;48.932;9.478;2022-09-12T06:56:42;5.60;;;5.30;;
2992;SDS011;1506;48.932;9.478;2022-09-12T06:59:10;5.17;;;4.87;;
2992;SDS011;1506;48.932;9.478;2022-09-12T07:01:37;5.70;;;5.27;;
2992;SDS011;1506;48.932;9.478;2022-09-12T07:04:05;4.93;;;4.63;;
2992;SDS011;1506;48.932;9.478;2022-09-12T07:06:36;4.63;;;4.43;;
2992;SDS011;1506;48.932;9.478;2022-09-12T07:09:07;12.13;;;5.37;;
2992;SDS011;1506;48.932;9.478;2022-09-12T07:11:39;5.40;;;5.20;;
2992;SDS011;1506;48.932;9.478;2022-09-12T07:14:08;6.13;;;5.73;;
2992;SDS011;1506;48.932;9.478;2022-09-12T07:16:38;6.90;;;5.83;;
2992;SDS011;1506;48.932;9.478;2022-09-12T07:19:06;6.43;;;6.03;;
2992;SDS011;1506;48.932;9.478;2022-09-12T07:21:34;4.83;;;4.60;;
2992;SDS011;1506;48.932;9.478;2022-09-12T07:24:05;5.07;;;4.73;;
2992;SDS011;1506;48.932;9.478;2022-09-12T07:26:34;5.47;;;4.97;;
2992;SDS011;1506;48.932;9.478;2022-09-12T07:29:02;4.63;;;4.43;;
2992;SDS011;1506;48.932;9.478;2022-09-12T07:31:50;4.50;;;4.20;;
2992;SDS011;1506;48.932;9.478;2022-09-12T07:34:17;4.70;;;4.50;;
2992;SDS011;1506;48.932;9.478;2022-09-12T07:36:45;4.40;;;4.20;;
2992;SDS011;1506;48.932;9.478;2022-09-12T07:39:12;4.10;;;3.87;;
2992;SDS011;1506;48.932;9.478;2022-09-12T07:41:39;5.33;;;4.93;;
2992;SDS011;1506;48.932;9.478;2022-09-12T07:44:07;4.60;;;4.40;;
2992;SDS011;1506;48.932;9.478;2022-09-12T07:46:34;4.40;;;4.20;;
2992;SDS011;1506;48.932;9.478;2022-09-12T07:49:02;4.63;;;4.43;;
2992;SDS011;1506;48.932;9.478;2022-09-12T07:51:29;4.30;;;4.00;;
2992;SDS011;1506;48.932;9.478;2022-09-12T07:53:57;4.83;;;4.53;;
2992;SDS011;1506;48.932;9.478;2022-09-12T07:56:25;4.90;;;4.60;;
2992;SDS011;1506;48.932;9.478;2022-09-12T07:58:56;5.23;;;4.83;;
2992;SDS011;1506;48.932;9.478;2022-09-12T08:01:24;4.97;;;4.77;;
2992;SDS011;1506;48.932;9.478;2022-09-12T08:03:52;4.27;;;4.13;;
2992;SDS011;1506;48.932;9.478;2022-09-12T08:06:24;4.17;;;3.97;;
2992;SDS011;1506;48.932;9.478;2022-09-12T08:08:53;5.53;;;4.83;;
2992;SDS011;1506;48.932;9.478;2022-09-12T08:11:22;4.20;;;3.80;;
2992;SDS011;1506;48.932;9.478;2022-09-12T08:13:52;4.17;;;3.97;;
2992;SDS011;1506;48.932;9.478;2022-09-12T08:16:23;5.13;;;4.80;;
2992;SDS011;1506;48.932;9.478;2022-09-12T08:18:52;4.30;;;4.10;;
2992;SDS011;1506;48.932;9.478;2022-09-12T08:21:20;3.70;;;3.40;;
2992;SDS011;1506;48.932;9.478;2022-09-12T08:23:52;3.57;;;3.47;;
2992;SDS011;1506;48.932;9.478;2022-09-12T08:26:21;5.10;;;4.80;;
2992;SDS011;1506;48.932;9.478;2022-09-12T08:28:50;4.40;;;4.10;;
2992;SDS011;1506;48.932;9.478;2022-09-12T08:31:19;4.43;;;4.20;;
2992;SDS011;1506;48.932;9.478;2022-09-12T08:33:47;3.63;;;3.43;;
2992;SDS011;1506;48.932;9.478;2022-09-12T08:36:19;5.57;;;4.30;;
2992;SDS011;1506;48.932;9.478;2022-09-12T08:38:50;3.37;;;3.23;;
2992;SDS011;1506;48.932;9.478;2022-09-12T08:41:27;3.87;;;3.77;;
2992;SDS011;1506;48.932;9.478;2022-09-12T08:46:56;3.00;;;2.80;;
2992;SDS011;1506;48.932;9.478;2022-09-12T08:52:48;2.70;;;2.50;;
2992;SDS011;1506;48.932;9.478;2022-09-12T08:56:02;2.17;;;2.07;;
2992;SDS011;1506;48.932;9.478;2022-09-12T08:58:26;3.53;;;2.27;;
2992;SDS011;1506;48.932;9.478;2022-09-12T09:01:08;1.70;;;1.60;;
2992;SDS011;1506;48.932;9.478;2022-09-12T09:12:50;2.03;;;1.93;;
2992;SDS011;1506;48.932;9.478;2022-09-12T09:16:07;3.13;;;3.00;;
2992;SDS011;1506;48.932;9.478;2022-09-12T09:18:51;2.13;;;2.03;;
2992;SDS011;1506;48.932;9.478;2022-09-12T09:23:54;2.50;;;1.83;;
2992;SDS011;1506;48.932;9.478;2022-09-12T09:26:29;2.50;;;2.40;;
2992;SDS011;1506;48.932;9.478;2022-09-12T09:32:17;2.30;;;2.20;;
2992;SDS011;1506;48.932;9.478;2022-09-12T09:34:52;2.87;;;2.77;;
2992;SDS011;1506;48.932;9.478;2022-09-12T09:43:18;2.10;;;2.00;;
2992;SDS011;1506;48.932;9.478;2022-09-12T09:45:49;2.00;;;1.90;;
2992;SDS011;1506;48.932;9.478;2022-09-12T09:48:19;1.90;;;1.80;;
2992;SDS011;1506;48.932;9.478;2022-09-12T09:50:59;2.20;;;2.10;;
2992;SDS011;1506;48.932;9.478;2022-09-12T09:53:44;2.77;;;2.50;;
2992;SDS011;1506;48.932;9.478;2022-09-12T10:01:45;2.10;;;2.00;;
2992;SDS011;1506;48.932;9.478;2022-09-12T10:04:33;2.10;;;2.00;;
2992;SDS011;1506;48.932;9.478;2022-09-12T10:07:17;2.90;;;2.80;;
2992;SDS011;1506;48.932;9.478;2022-09-12T10:12:50;2.40;;;2.30;;
2992;SDS011;1506;48.932;9.478;2022-09-12T10:15:48;2.33;;;2.23;;
2992;SDS011;1506;48.932;9.478;2022-09-12T10:18:40;4.77;;;1.90;;
2992;SDS011;1506;48.932;9.478;2022-09-12T10:27:15;9.80;;;2.73;;
2992;SDS011;1506;48.932;9.478;2022-09-12T10:35:02;2.13;;;2.00;;
2992;SDS011;1506;48.932;9.478;2022-09-12T10:37:51;2.63;;;2.50;;
2992;SDS011;1506;48.932;9.478;2022-09-12T10:40:25;2.30;;;2.20;;
2992;SDS011;1506;48.932;9.478;2022-09-12T10:43:00;2.03;;;1.93;;
2992;SDS011;1506;48.932;9.478;2022-09-12T10:45:31;1.57;;;1.47;;
2992;SDS011;1506;48.932;9.478;2022-09-12T10:48:02;2.60;;;2.07;;
2992;SDS011;1506;48.932;9.478;2022-09-12T10:50:47;1.50;;;1.40;;
2992;SDS011;1506;48.932;9.478;2022-09-12T11:01:46;2.27;;;2.17;;
2992;SDS011;1506;48.932;9.478;2022-09-12T11:07:23;2.20;;;2.10;;
2992;SDS011;1506;48.932;9.478;2022-09-12T11:10:16;2.57;;;2.47;;
2992;SDS011;1506;48.932;9.478;2022-09-12T11:16:01;4.50;;;1.80;;
2992;SDS011;1506;48.932;9.478;2022-09-12T11:25:03;1.83;;;1.50;;
2992;SDS011;1506;48.932;9.478;2022-09-12T11:30:16;1.47;;;1.37;;
2992;SDS011;1506;48.932;9.478;2022-09-12T11:35:43;2.23;;;2.07;;
2992;SDS011;1506;48.932;9.478;2022-09-12T11:41:04;1.80;;;1.70;;
2992;SDS011;1506;48.932;9.478;2022-09-12T11:46:11;1.43;;;1.33;;
2992;SDS011;1506;48.932;9.478;2022-09-12T11:51:34;1.70;;;1.60;;
2992;SDS011;1506;48.932;9.478;2022-09-12T12:00:02;1.10;;;1.10;;
2992;SDS011;1506;48.932;9.478;2022-09-12T12:02:38;2.00;;;1.67;;
2992;SDS011;1506;48.932;9.478;2022-09-12T12:07:50;2.60;;;1.60;;
2992;SDS011;1506;48.932;9.478;2022-09-12T12:10:48;1.60;;;1.50;;
2992;SDS011;1506;48.932;9.478;2022-09-12T12:13:16;1.40;;;1.30;;
2992;SDS011;1506;48.932;9.478;2022-09-12T12:15:51;1.50;;;1.40;;
2992;SDS011;1506;48.932;9.478;2022-09-12T12:18:25;1.70;;;1.60;;
2992;SDS011;1506;48.932;9.478;2022-09-12T12:34:38;1.70;;;1.60;;
2992;SDS011;1506;48.932;9.478;2022-09-12T12:50:03;1.57;;;1.47;;
2992;SDS011;1506;48.932;9.478;2022-09-12T12:55:25;1.17;;;1.17;;
2992;SDS011;1506;48.932;9.478;2022-09-12T12:58:00;2.30;;;1.10;;
2992;SDS011;1506;48.932;9.478;2022-09-12T13:00:35;1.17;;;1.07;;
2992;SDS011;1506;48.932;9.478;2022-09-12T13:05:40;1.60;;;1.50;;
2992;SDS011;1506;48.932;9.478;2022-09-12T13:10:52;1.37;;;1.27;;
2992;SDS011;1506;48.932;9.478;2022-09-12T13:13:24;1.20;;;1.10;;
2992;SDS011;1506;48.932;9.478;2022-09-12T13:15:56;1.40;;;1.30;;
2992;SDS011;1506;48.932;9.478;2022-09-12T13:18:27;1.67;;;1.57;;
2992;SDS011;1506;48.932;9.478;2022-09-12T13:21:13;1.50;;;1.40;;
2992;SDS011;1506;48.932;9.478;2022-09-12T13:23:59;1.53;;;1.43;;
2992;SDS011;1506;48.932;9.478;2022-09-12T13:26:39;1.80;;;1.70;;
2992;SDS011;1506;48.932;9.478;2022-09-12T13:29:09;1.13;;;1.10;;
2992;SDS011;1506;48.932;9.478;2022-09-12T13:31:48;1.33;;;1.23;;
2992;SDS011;1506;48.932;9.478;2022-09-12T13:34:26;2.90;;;2.70;;
2992;SDS011;1506;48.932;9.478;2022-09-12T13:42:50;1.03;;;1.03;;
2992;SDS011;1506;48.932;9.478;2022-09-12T13:45:37;0.80;;;0.80;;
2992;SDS011;1506;48.932;9.478;2022-09-12T13:48:05;1.07;;;1.07;;
2992;SDS011;1506;48.932;9.478;2022-09-12T13:50:45;1.30;;;1.20;;
2992;SDS011;1506;48.932;9.478;2022-09-12T13:53:40;1.07;;;1.07;;
2992;SDS011;1506;48.932;9.478;2022-09-12T13:56:14;2.90;;;1.30;;
2992;SDS011;1506;48.932;9.478;2022-09-12T13:58:53;1.07;;;1.07;;
2992;SDS011;1506;48.932;9.478;2022-09-12T14:01:24;1.80;;;1.70;;
2992;SDS011;1506;48.932;9.478;2022-09-12T14:04:21;0.97;;;0.97;;
2992;SDS011;1506;48.932;9.478;2022-09-12T14:07:19;1.40;;;1.30;;
2992;SDS011;1506;48.932;9.478;2022-09-12T14:09:53;1.20;;;1.20;;
2992;SDS011;1506;48.932;9.478;2022-09-12T14:14:55;1.50;;;1.40;;
2992;SDS011;1506;48.932;9.478;2022-09-12T14:17:24;5.63;;;1.40;;
2992;SDS011;1506;48.932;9.478;2022-09-12T14:20:00;1.37;;;1.27;;
2992;SDS011;1506;48.932;9.478;2022-09-12T14:22:34;1.50;;;1.40;;
2992;SDS011;1506;48.932;9.478;2022-09-12T14:25:01;1.53;;;1.30;;
2992;SDS011;1506;48.932;9.478;2022-09-12T14:27:35;1.20;;;1.10;;
2992;SDS011;1506;48.932;9.478;2022-09-12T14:30:29;1.47;;;1.37;;
2992;SDS011;1506;48.932;9.478;2022-09-12T14:35:36;1.03;;;1.03;;
2992;SDS011;1506;48.932;9.478;2022-09-12T14:40:46;7.60;;;1.10;;
2992;SDS011;1506;48.932;9.478;2022-09-12T14:43:25;1.47;;;1.37;;
2992;SDS011;1506;48.932;9.478;2022-09-12T14:46:02;1.27;;;1.23;;
2992;SDS011;1506;48.932;9.478;2022-09-12T14:48:43;1.17;;;1.17;;
2992;SDS011;1506;48.932;9.478;2022-09-12T14:54:38;1.40;;;1.30;;
2992;SDS011;1506;48.932;9.478;2022-09-12T14:57:13;1.53;;;1.43;;
2992;SDS011;1506;48.932;9.478;2022-09-12T15:02:37;1.80;;;1.70;;
2992;SDS011;1506;48.932;9.478;2022-09-12T15:07:36;1.10;;;1.10;;
2992;SDS011;1506;48.932;9.478;2022-09-12T15:12:43;1.33;;;1.23;;
2992;SDS011;1506;48.932;9.478;2022-09-12T15:15:17;1.63;;;1.53;;
2992;SDS011;1506;48.932;9.478;2022-09-12T15:17:46;1.60;;;1.50;;
2992;SDS011;1506;48.932;9.478;2022-09-12T15:20:13;1.43;;;1.33;;
2992;SDS011;1506;48.932;9.478;2022-09-12T15:22:40;1.27;;;1.27;;
2992;SDS011;1506;48.932;9.478;2022-09-12T15:25:08;1.13;;;1.13;;
2992;SDS011;1506;48.932;9.478;2022-09-12T15:27:38;1.40;;;1.30;;
2992;SDS011;1506;48.932;9.478;2022-09-12T15:30:08;2.00;;;1.90;;
2992;SDS011;1506;48.932;9.478;2022-09-12T15:32:37;3.37;;;1.20;;
2992;SDS011;1506;48.932;9.478;2022-09-12T15:35:17;1.40;;;1.30;;
2992;SDS011;1506;48.932;9.478;2022-09-12T15:37:48;1.40;;;1.30;;
2992;SDS011;1506;48.932;9.478;2022-09-12T15:40:15;1.70;;;1.60;;
2992;SDS011;1506;48.932;9.478;2022-09-12T15:42:42;1.30;;;1.20;;
2992;SDS011;1506;48.932;9.478;2022-09-12T15:45:20;1.37;;;1.27;;
2992;SDS011;1506;48.932;9.478;2022-09-12T15:47:52;1.57;;;1.47;;
2992;SDS011;1506;48.932;9.478;2022-09-12T15:50:20;1.47;;;1.37;;
2992;SDS011;1506;48.932;9.478;2022-09-12T15:52:47;1.70;;;1.60;;
2992;SDS011;1506;48.932;9.478;2022-09-12T15:55:19;1.87;;;1.77;;
2992;SDS011;1506;48.932;9.478;2022-09-12T15:57:49;1.97;;;1.87;;
2992;SDS011;1506;48.932;9.478;2022-09-12T16:00:16;1.13;;;1.13;;
2992;SDS011;1506;48.932;9.478;2022-09-12T16:02:45;1.60;;;1.50;;
2992;SDS011;1506;48.932;9.478;2022-09-12T16:05:19;1.20;;;1.10;;
2992;SDS011;1506;48.932;9.478;2022-09-12T16:07:50;1.30;;;1.20;;
2992;SDS011;1506;48.932;9.478;2022-09-12T16:10:20;1.40;;;1.30;;
2992;SDS011;1506;48.932;9.478;2022-09-12T16:12:51;1.37;;;1.20;;
2992;SDS011;1506;48.932;9.478;2022-09-12T16:15:19;1.53;;;1.43;;
2992;SDS011;1506;48.932;9.478;2022-09-12T16:17:48;1.70;;;1.60;;
2992;SDS011;1506;48.932;9.478;2022-09-12T16:20:16;1.80;;;1.70;;
2992;SDS011;1506;48.932;9.478;2022-09-12T16:22:44;1.57;;;1.50;;
2992;SDS011;1506;48.932;9.478;2022-09-12T16:25:11;1.50;;;1.40;;
2992;SDS011;1506;48.932;9.478;2022-09-12T16:27:39;2.40;;;1.50;;
2992;SDS011;1506;48.932;9.478;2022-09-12T16:30:06;2.30;;;2.10;;
2992;SDS011;1506;48.932;9.478;2022-09-12T16:32:34;3.90;;;1.80;;
2992;SDS011;1506;48.932;9.478;2022-09-12T16:35:02;1.40;;;1.30;;
2992;SDS011;1506;48.932;9.478;2022-09-12T16:37:29;1.20;;;1.20;;
2992;SDS011;1506;48.932;9.478;2022-09-12T16:39:57;1.53;;;1.43;;
2992;SDS011;1506;48.932;9.478;2022-09-12T16:42:24;2.03;;;1.93;;
2992;SDS011;1506;48.932;9.478;2022-09-12T16:44:51;1.70;;;1.60;;
2992;SDS011;1506;48.932;9.478;2022-09-12T16:47:18;2.17;;;1.63;;
2992;SDS011;1506;48.932;9.478;2022-09-12T16:49:45;1.50;;;1.40;;
2992;SDS011;1506;48.932;9.478;2022-09-12T16:52:11;1.50;;;1.40;;
2992;SDS011;1506;48.932;9.478;2022-09-12T16:54:42;1.60;;;1.50;;
2992;SDS011;1506;48.932;9.478;2022-09-12T16:57:11;1.70;;;1.60;;
2992;SDS011;1506;48.932;9.478;2022-09-12T16:59:38;1.53;;;1.43;;
2992;SDS011;1506;48.932;9.478;2022-09-12T17:02:05;1.60;;;1.50;;
2992;SDS011;1506;48.932;9.478;2022-09-12T17:04:37;1.70;;;1.60;;
2992;SDS011;1506;48.932;9.478;2022-09-12T17:07:04;9.80;;;1.57;;
2992;SDS011;1506;48.932;9.478;2022-09-12T17:09:32;1.87;;;1.13;;
2992;SDS011;1506;48.932;9.478;2022-09-12T17:11:59;1.57;;;1.47;;
2992;SDS011;1506;48.932;9.478;2022-09-12T17:14:26;1.83;;;1.57;;
2992;SDS011;1506;48.932;9.478;2022-09-12T17:16:53;1.50;;;1.40;;
2992;SDS011;1506;48.932;9.478;2022-09-12T17:19:21;1.80;;;1.60;;
2992;SDS011;1506;48.932;9.478;2022-09-12T17:21:55;1.53;;;1.43;;
2992;SDS011;1506;48.932;9.478;2022-09-12T17:24:23;1.70;;;1.60;;
2992;SDS011;1506;48.932;9.478;2022-09-12T17:26:50;1.77;;;1.67;;
2992;SDS011;1506;48.932;9.478;2022-09-12T17:29:18;3.03;;;1.60;;
2992;SDS011;1506;48.932;9.478;2022-09-12T17:31:45;2.20;;;2.10;;
2992;SDS011;1506;48.932;9.478;2022-09-12T17:34:13;18.63;;;3.03;;
2992;SDS011;1506;48.932;9.478;2022-09-12T17:36:41;35.43;;;4.13;;
2992;SDS011;1506;48.932;9.478;2022-09-12T17:39:10;4.70;;;2.47;;
2992;SDS011;1506;48.932;9.478;2022-09-12T17:41:38;1.53;;;1.43;;
2992;SDS011;1506;48.932;9.478;2022-09-12T17:44:11;1.90;;;1.80;;
2992;SDS011;1506;48.932;9.478;2022-09-12T17:46:40;5.20;;;1.90;;
2992;SDS011;1506;48.932;9.478;2022-09-12T17:49:12;4.73;;;2.20;;
2992;SDS011;1506;48.932;9.478;2022-09-12T17:51:41;2.70;;;2.50;;
2992;SDS011;1506;48.932;9.478;2022-09-12T17:54:10;2.83;;;2.33;;
2992;SDS011;1506;48.932;9.478;2022-09-12T17:56:41;36.90;;;12.47;;
2992;SDS011;1506;48.932;9.478;2022-09-12T17:59:09;8.60;;;3.60;;
2992;SDS011;1506;48.932;9.478;2022-09-12T18:01:42;5.00;;;3.07;;
2992;SDS011;1506;48.932;9.478;2022-09-12T18:04:27;9.87;;;4.47;;
2992;SDS011;1506;48.932;9.478;2022-09-12T18:06:55;2.73;;;2.53;;
2992;SDS011;1506;48.932;9.478;2022-09-12T18:09:23;7.00;;;2.40;;
2992;SDS011;1506;48.932;9.478;2022-09-12T18:11:53;2.10;;;2.00;;
2992;SDS011;1506;48.932;9.478;2022-09-12T18:14:20;2.30;;;2.10;;
2992;SDS011;1506;48.932;9.478;2022-09-12T18:16:48;2.60;;;2.40;;
2992;SDS011;1506;48.932;9.478;2022-09-12T18:19:16;10.97;;;10.00;;
2992;SDS011;1506;48.932;9.478;2022-09-12T18:21:43;2.80;;;2.70;;
2992;SDS011;1506;48.932;9.478;2022-09-12T18:24:10;2.00;;;1.90;;
2992;SDS011;1506;48.932;9.478;2022-09-12T18:26:38;11.43;;;2.30;;
2992;SDS011;1506;48.932;9.478;2022-09-12T18:29:05;4.90;;;4.47;;
2992;SDS011;1506;48.932;9.478;2022-09-12T18:31:32;3.00;;;2.90;;
2992;SDS011;1506;48.932;9.478;2022-09-12T18:34:00;2.83;;;2.73;;
2992;SDS011;1506;48.932;9.478;2022-09-12T18:36:28;5.30;;;3.60;;
2992;SDS011;1506;48.932;9.478;2022-09-12T18:38:56;5.83;;;5.43;;
2992;SDS011;1506;48.932;9.478;2022-09-12T18:41:24;2.40;;;2.30;;
2992;SDS011;1506;48.932;9.478;2022-09-12T18:43:54;2.90;;;2.70;;
2992;SDS011;1506;48.932;9.478;2022-09-12T18:46:25;2.27;;;2.17;;
2992;SDS011;1506;48.932;9.478;2022-09-12T18:48:55;1.87;;;1.77;;
2992;SDS011;1506;48.932;9.478;2022-09-12T18:51:25;2.90;;;2.70;;
2992;SDS011;1506;48.932;9.478;2022-09-12T18:54:04;2.90;;;1.80;;
2992;SDS011;1506;48.932;9.478;2022-09-12T18:56:34;2.10;;;2.00;;
2992;SDS011;1506;48.932;9.478;2022-09-12T18:59:04;3.00;;;2.90;;
2992;SDS011;1506;48.932;9.478;2022-09-12T19:01:32;3.53;;;3.43;;
2992;SDS011;1506;48.932;9.478;2022-09-12T19:04:02;3.80;;;3.60;;
2992;SDS011;1506;48.932;9.478;2022-09-12T19:06:31;2.67;;;2.30;;